Time;durP1;ratioP1;P1;durP2;ratioP2;P2;SDS_P1;SDS_P2;PMS_P1;PMS_P2;Temp;Humidity;BMP_temperature;BMP_pressure;BME280_temperature;BME280_humidity;BME280_pressure;Samples;Min_cycle;Max_cycle;Signal;HPM_P1;HPM_P2
2022/07/30 00:01:33;;;;;;;5.83;1.90;;;;;;;18.51;100.00;100469.55;1718409;83;20888;-66
2022/07/30 00:04:00;;;;;;;4.73;1.90;;;;;;;18.57;100.00;100468.13;1720198;82;21524;-57
2022/07/30 00:06:27;;;;;;;4.27;1.63;;;;;;;18.60;100.00;100473.44;1724143;82;21227;-66
2022/07/30 00:08:57;;;;;;;5.13;2.07;;;;;;;18.54;100.00;100468.58;1724459;82;21573;-57
2022/07/30 00:11:24;;;;;;;4.00;1.83;;;;;;;18.59;100.00;100463.92;1724662;82;22090;-58
2022/07/30 00:13:53;;;;;;;6.97;1.83;;;;;;;18.57;100.00;100465.48;1724250;83;21074;-57
2022/07/30 00:16:22;;;;;;;4.07;1.83;;;;;;;18.58;100.00;100468.92;1724084;82;21069;-64
2022/07/30 00:18:49;;;;;;;6.93;1.93;;;;;;;18.54;100.00;100461.98;1724675;82;21058;-58
2022/07/30 00:21:16;;;;;;;6.73;1.90;;;;;;;18.49;100.00;100475.08;1724406;82;21023;-56
2022/07/30 00:23:47;;;;;;;6.97;1.90;;;;;;;18.46;100.00;100472.36;1724006;82;20936;-57
2022/07/30 00:26:14;;;;;;;4.53;1.80;;;;;;;18.42;100.00;100471.73;1724616;82;21508;-65
2022/07/30 00:28:41;;;;;;;5.33;2.10;;;;;;;18.38;100.00;100474.55;1724378;83;21536;-56
2022/07/30 00:31:10;;;;;;;5.90;1.80;;;;;;;18.35;100.00;100463.92;1724880;83;21058;-58
2022/07/30 00:33:37;;;;;;;6.10;2.07;;;;;;;18.31;100.00;100466.73;1724538;82;21557;-64
2022/07/30 00:36:05;;;;;;;6.10;1.73;;;;;;;18.22;100.00;100466.77;1724392;82;22284;-58
2022/07/30 00:38:33;;;;;;;3.83;1.60;;;;;;;18.20;100.00;100470.17;1678693;84;21070;-57
2022/07/30 00:41:02;;;;;;;8.47;2.13;;;;;;;18.19;100.00;100472.53;1689630;84;21019;-59
2022/07/30 00:43:29;;;;;;;8.07;1.70;;;;;;;18.17;100.00;100464.82;1689606;84;21096;-58
2022/07/30 00:45:57;;;;;;;6.17;1.60;;;;;;;18.20;100.00;100471.48;1689336;84;21076;-56
2022/07/30 00:48:24;;;;;;;7.10;2.07;;;;;;;18.20;100.00;100470.17;1688705;84;21177;-58
2022/07/30 00:50:52;;;;;;;4.87;2.20;;;;;;;18.18;100.00;100465.62;1690122;84;21405;-56
2022/07/30 00:53:20;;;;;;;7.20;2.37;;;;;;;18.11;100.00;100467.07;1689496;84;21311;-57
2022/07/30 00:55:47;;;;;;;4.47;1.83;;;;;;;18.07;100.00;100465.92;1689230;84;20926;-58
2022/07/30 00:58:16;;;;;;;5.60;2.00;;;;;;;18.02;100.00;100466.30;1689149;84;21374;-59
2022/07/30 01:00:44;;;;;;;4.40;1.60;;;;;;;17.97;100.00;100466.98;1689872;84;21168;-58
2022/07/30 01:03:12;;;;;;;6.70;2.27;;;;;;;17.96;100.00;100460.11;1689926;84;21564;-56
2022/07/30 01:05:40;;;;;;;4.07;1.77;;;;;;;17.88;100.00;100465.68;1697185;84;21068;-59
2022/07/30 01:08:08;;;;;;;5.20;2.17;;;;;;;17.84;100.00;100461.41;1699285;84;21488;-64
2022/07/30 01:10:37;;;;;;;3.83;1.73;;;;;;;17.87;100.00;100461.45;1699480;84;21521;-58
2022/07/30 01:13:05;;;;;;;4.17;1.67;;;;;;;17.90;100.00;100453.89;1699416;84;21331;-56
2022/07/30 01:15:35;;;;;;;7.87;2.20;;;;;;;17.93;100.00;100457.39;1699198;84;21127;-63
2022/07/30 01:18:05;;;;;;;6.73;2.00;;;;;;;17.92;100.00;100460.27;1698792;84;22153;-58
2022/07/30 01:20:39;;;;;;;4.63;1.53;;;;;;;17.92;100.00;100456.31;1699825;84;21556;-57
2022/07/30 01:23:22;;;;;;;4.07;1.80;;;;;;;17.89;100.00;100460.72;1699781;84;20968;-57
2022/07/30 01:26:03;;;;;;;4.20;1.43;;;;;;;17.85;100.00;100461.69;1699108;83;21502;-57
2022/07/30 01:28:34;;;;;;;5.00;1.50;;;;;;;17.85;100.00;100461.69;1699680;84;21079;-56
2022/07/30 01:31:03;;;;;;;5.43;1.83;;;;;;;17.89;100.00;100451.48;1699062;84;21526;-58
2022/07/30 01:33:30;;;;;;;6.67;2.00;;;;;;;17.91;100.00;100457.32;1699031;84;21865;-57
2022/07/30 01:36:00;;;;;;;7.57;1.83;;;;;;;17.90;100.00;100453.09;1718824;82;21091;-57
2022/07/30 01:38:30;;;;;;;3.97;1.87;;;;;;;17.79;100.00;100451.23;1699478;84;21577;-56
2022/07/30 01:40:57;;;;;;;3.83;1.60;;;;;;;17.83;100.00;100455.81;1698942;84;20961;-57
2022/07/30 01:43:24;;;;;;;5.00;1.80;;;;;;;17.87;100.00;100450.89;1699662;84;21078;-57
2022/07/30 01:45:52;;;;;;;3.97;1.63;;;;;;;17.82;100.00;100452.09;1700012;84;21138;-56
2022/07/30 01:48:22;;;;;;;4.83;1.93;;;;;;;17.83;100.00;100452.38;1699908;84;20932;-57
2022/07/30 01:50:51;;;;;;;6.57;1.80;;;;;;;17.82;100.00;100455.53;1699921;84;21929;-65
2022/07/30 01:53:21;;;;;;;4.73;1.93;;;;;;;17.84;100.00;100448.70;1699895;84;21087;-56
2022/07/30 01:55:49;;;;;;;4.83;2.05;;;;;;;17.77;100.00;100453.27;1700346;84;21055;-57
2022/07/30 01:58:18;;;;;;;4.63;1.90;;;;;;;17.76;100.00;100456.42;1700015;84;20913;-59
2022/07/30 02:00:49;;;;;;;5.40;2.27;;;;;;;17.78;100.00;100454.37;1718818;82;22022;-63
2022/07/30 02:03:16;;;;;;;6.23;1.97;;;;;;;17.66;100.00;100453.00;1699963;84;22008;-60
2022/07/30 02:05:48;;;;;;;5.77;1.57;;;;;;;17.60;100.00;100454.41;1700230;84;20957;-56
2022/07/30 02:08:37;;;;;;;7.83;2.40;;;;;;;17.56;100.00;100454.05;1700235;84;20917;-57
2022/07/30 02:11:08;;;;;;;4.73;2.03;;;;;;;17.44;100.00;100455.32;1670237;84;22012;-56
2022/07/30 02:13:48;;;;;;;4.13;1.87;;;;;;;17.47;100.00;100451.45;1699774;84;21131;-56
2022/07/30 02:16:25;;;;;;;4.03;1.87;;;;;;;17.45;100.00;100446.90;1699227;84;21339;-57
2022/07/30 02:19:05;;;;;;;5.07;1.40;;;;;;;17.56;100.00;100447.45;1699374;84;21074;-56
2022/07/30 02:21:36;;;;;;;4.07;1.53;;;;;;;17.59;100.00;100439.11;1699751;84;21008;-57
2022/07/30 02:24:13;;;;;;;4.37;1.80;;;;;;;17.71;100.00;100439.94;1699316;84;20969;-58
2022/07/30 02:26:42;;;;;;;4.50;1.97;;;;;;;17.84;100.00;100440.80;1699657;84;21412;-56
2022/07/30 02:29:09;;;;;;;3.40;1.90;;;;;;;17.91;100.00;100444.14;1699759;84;21440;-57
2022/07/30 02:31:36;;;;;;;4.50;2.00;;;;;;;17.97;100.00;100440.60;1699155;84;20992;-64
2022/07/30 02:34:05;;;;;;;6.73;1.70;;;;;;;18.22;100.00;100446.98;1699087;84;21027;-64
2022/07/30 02:36:33;;;;;;;4.00;1.70;;;;;;;18.45;100.00;100446.21;1699622;84;21130;-59
2022/07/30 02:39:00;;;;;;;4.77;1.50;;;;;;;18.57;100.00;100448.32;1699494;84;21056;-57
2022/07/30 02:41:30;;;;;;;4.33;1.40;;;;;;;18.63;100.00;100450.02;1672018;84;21292;-64
2022/07/30 02:43:57;;;;;;;8.03;1.90;;;;;;;18.59;100.00;100456.80;1699037;84;21028;-56
2022/07/30 02:46:25;;;;;;;3.90;1.30;;;;;;;18.54;100.00;100458.02;1698955;84;21015;-58
2022/07/30 02:49:13;;;;;;;3.00;1.53;;;;;;;18.55;100.00;100458.30;1699465;84;20980;-59
2022/07/30 02:51:41;;;;;;;3.27;1.60;;;;;;;18.49;100.00;100459.23;1698974;84;21526;-59
2022/07/30 02:54:10;;;;;;;4.83;1.70;;;;;;;18.46;100.00;100461.80;1698976;84;20956;-58
2022/07/30 02:56:38;;;;;;;4.53;1.80;;;;;;;18.49;100.00;100459.23;1691330;84;21135;-58
2022/07/30 02:59:05;;;;;;;3.50;1.70;;;;;;;18.51;100.00;100463.75;1699455;84;21059;-57
2022/07/30 03:01:34;;;;;;;3.37;1.47;;;;;;;18.58;100.00;100468.40;1699283;84;20882;-57
2022/07/30 03:04:02;;;;;;;4.20;1.57;;;;;;;18.58;100.00;100462.32;1699637;84;21067;-57
2022/07/30 03:06:30;;;;;;;3.37;1.63;;;;;;;18.68;100.00;100468.63;1687717;83;21287;-58
2022/07/30 03:08:59;;;;;;;4.13;1.80;;;;;;;18.90;100.00;100465.40;1719010;83;21031;-57
2022/07/30 03:11:26;;;;;;;4.10;1.77;;;;;;;19.35;100.00;100461.54;1718320;83;21038;-58
2022/07/30 03:13:56;;;;;;;3.77;1.73;;;;;;;20.15;100.00;100457.94;1718997;83;21536;-57
2022/07/30 03:16:24;;;;;;;3.83;1.57;;;;;;;21.16;100.00;100457.44;1718337;83;20900;-58
2022/07/30 03:18:51;;;;;;;6.13;1.80;;;;;;;22.29;100.00;100456.92;1718538;83;21510;-57
2022/07/30 03:21:20;;;;;;;4.83;1.80;;;;;;;23.32;100.00;100452.89;1717905;83;21019;-57
2022/07/30 03:23:49;;;;;;;2.90;1.60;;;;;;;24.27;100.00;100452.41;1718850;83;21306;-57
2022/07/30 03:26:16;;;;;;;3.47;1.30;;;;;;;25.34;100.00;100450.70;1718417;83;21122;-58
2022/07/30 03:28:44;;;;;;;4.17;1.70;;;;;;;26.29;96.12;100448.63;1718740;83;21120;-56
2022/07/30 03:31:12;;;;;;;4.85;1.70;;;;;;;27.09;79.98;100452.02;1696025;83;21090;-59
2022/07/30 03:33:40;;;;;;;2.62;1.45;;;;;;;27.67;67.03;100457.63;1663681;84;21588;-57
2022/07/30 03:36:08;;;;;;;3.60;1.72;;;;;;;28.03;63.65;100454.61;1718687;83;21011;-58
2022/07/30 03:38:39;;;;;;;3.52;1.70;;;;;;;28.50;57.91;100458.08;1695368;83;21047;-58
2022/07/30 03:41:08;;;;;;;6.08;2.22;;;;;;;28.91;55.94;100459.16;1718464;83;20876;-59
2022/07/30 03:43:35;;;;;;;7.15;1.70;;;;;;;29.62;52.48;100456.24;1718388;83;21447;-57
2022/07/30 03:46:05;;;;;;;4.20;1.75;;;;;;;30.19;49.66;100453.77;1718687;83;21015;-67
2022/07/30 03:48:36;;;;;;;5.30;2.12;;;;;;;30.72;47.40;100455.53;1718647;83;21054;-57
2022/07/30 03:51:04;;;;;;;3.33;1.80;;;;;;;31.15;45.00;100458.86;1719118;83;21079;-59
2022/07/30 03:53:33;;;;;;;3.55;1.77;;;;;;;31.46;44.61;100462.77;1696306;83;20928;-58
2022/07/30 03:56:18;;;;;;;6.72;1.95;;;;;;;32.15;43.38;100459.14;1719329;83;21479;-58
2022/07/30 03:58:57;;;;;;;3.12;1.82;;;;;;;33.12;40.70;100461.04;1717847;83;21447;-58
2022/07/30 04:01:25;;;;;;;5.53;1.72;;;;;;;33.71;38.67;100450.59;1695434;83;21117;-58
2022/07/30 04:03:54;;;;;;;2.98;1.50;;;;;;;34.02;36.95;100458.78;1718802;83;20935;-57
2022/07/30 04:06:22;;;;;;;4.15;1.55;;;;;;;34.21;36.51;100456.89;1719449;81;21043;-57
2022/07/30 04:08:50;;;;;;;4.80;1.40;;;;;;;34.36;35.31;100458.92;1718181;83;22313;-57
2022/07/30 04:11:17;;;;;;;4.53;1.47;;;;;;;34.26;34.24;100458.03;1718720;83;21046;-57
2022/07/30 04:13:47;;;;;;;3.70;1.30;;;;;;;33.85;34.98;100456.48;1714958;83;20979;-61
2022/07/30 04:16:43;;;;;;;3.83;1.17;;;;;;;33.81;35.41;100459.63;1719014;83;21043;-56
2022/07/30 04:19:24;;;;;;;4.17;1.40;;;;;;;33.86;34.54;100454.56;1718711;83;21559;-61
2022/07/30 04:21:53;;;;;;;3.70;1.25;;;;;;;33.70;34.38;100453.63;1695821;83;21298;-57
2022/07/30 04:24:22;;;;;;;2.58;1.20;;;;;;;33.67;35.27;100461.84;1718375;83;20982;-57
2022/07/30 04:26:51;;;;;;;3.85;1.60;;;;;;;34.15;35.14;100453.63;1719232;83;21827;-57
2022/07/30 04:29:20;;;;;;;5.83;1.57;;;;;;;34.93;34.18;100451.23;1718645;83;21501;-57
2022/07/30 04:31:47;;;;;;;5.40;1.65;;;;;;;35.43;32.00;100456.72;1719067;83;21000;-58
2022/07/30 04:34:21;;;;;;;2.55;1.37;;;;;;;35.48;32.14;100460.52;1714097;83;22214;-64
2022/07/30 04:36:48;;;;;;;2.85;1.30;;;;;;;35.76;32.24;100459.72;1718747;83;22138;-63
2022/07/30 04:39:16;;;;;;;5.03;1.70;;;;;;;36.05;31.12;100462.62;1718679;83;21007;-58
2022/07/30 04:41:43;;;;;;;2.42;1.50;;;;;;;35.84;31.42;100462.86;1718815;83;21484;-58
2022/07/30 04:44:18;;;;;;;3.83;1.52;;;;;;;35.69;31.21;100464.98;1717531;83;21000;-61
2022/07/30 04:46:47;;;;;;;4.20;1.35;;;;;;;35.31;31.29;100464.91;1717251;83;22052;-59
2022/07/30 04:49:17;;;;;;;2.67;1.17;;;;;;;34.90;31.49;100468.73;1695524;83;21975;-58
2022/07/30 04:51:44;;;;;;;4.12;1.37;;;;;;;34.40;31.75;100467.97;1718714;83;21047;-58
2022/07/30 04:54:12;;;;;;;3.42;1.10;;;;;;;34.05;32.69;100463.53;1718751;83;21109;-59
2022/07/30 04:56:39;;;;;;;2.75;1.20;;;;;;;33.96;32.84;100466.31;1718590;83;21090;-58
2022/07/30 04:59:07;;;;;;;4.00;1.37;;;;;;;33.73;33.06;100468.63;1718505;83;21275;-59
2022/07/30 05:01:36;;;;;;;3.42;1.50;;;;;;;33.59;33.81;100468.13;1696824;83;21556;-59
2022/07/30 05:04:04;;;;;;;4.37;1.50;;;;;;;33.85;33.88;100469.22;1719300;83;21015;-60
2022/07/30 05:06:32;;;;;;;3.52;1.50;;;;;;;34.16;32.97;100462.53;1696869;82;21058;-58
2022/07/30 05:09:00;;;;;;;3.05;1.35;;;;;;;34.35;33.36;100466.82;1728060;82;21081;-58
2022/07/30 05:11:28;;;;;;;2.92;1.60;;;;;;;34.70;32.97;100462.31;1728665;82;21423;-59
2022/07/30 05:13:57;;;;;;;4.20;1.50;;;;;;;35.00;32.98;100465.55;1729051;82;20970;-57
2022/07/30 05:16:28;;;;;;;4.80;1.40;;;;;;;35.23;31.58;100467.17;1728581;82;20947;-65
2022/07/30 05:18:56;;;;;;;2.92;1.60;;;;;;;34.81;31.96;100465.56;1728861;82;21722;-60
2022/07/30 05:21:24;;;;;;;3.30;1.40;;;;;;;34.75;32.63;100463.45;1729042;82;21479;-58
2022/07/30 05:23:51;;;;;;;5.50;1.72;;;;;;;35.34;32.04;100466.91;1728800;82;21252;-57
2022/07/30 05:26:22;;;;;;;4.25;1.52;;;;;;;35.88;31.05;100459.66;1728479;82;21505;-57
2022/07/30 05:28:52;;;;;;;;;;;;;;;36.21;30.28;100455.82;1730973;82;21462;-59
2022/07/30 05:31:21;;;;;;;5.10;1.92;;;;;;;36.17;30.11;100467.16;1728742;82;20530;-57
2022/07/30 05:33:51;;;;;;;;;;;;;;;35.97;30.28;100469.77;1730755;82;21047;-58
2022/07/30 05:36:19;;;;;;;3.50;1.52;;;;;;;35.54;30.95;100461.89;1728884;82;22190;-59
2022/07/30 05:38:47;;;;;;;2.98;1.60;;;;;;;35.56;30.56;100450.11;1728126;82;20999;-66
2022/07/30 05:41:35;;;;;;;4.45;1.60;;;;;;;35.55;31.10;100458.03;1726939;82;20946;-58
2022/07/30 05:44:07;;;;;;;4.00;1.90;;;;;;;35.71;31.12;100453.98;1728409;82;21077;-60
2022/07/30 05:46:35;;;;;;;4.85;1.60;;;;;;;35.82;30.67;100456.41;1728257;82;21010;-59
2022/07/30 05:49:03;;;;;;;3.47;1.60;;;;;;;35.73;30.45;100454.44;1728958;82;21309;-58
2022/07/30 05:51:30;;;;;;;5.20;1.77;;;;;;;35.61;30.58;100452.35;1728760;82;21496;-58
2022/07/30 05:53:58;;;;;;;3.22;1.50;;;;;;;35.34;30.85;100451.42;1729004;82;20943;-58
2022/07/30 05:56:27;;;;;;;3.37;1.60;;;;;;;35.30;30.97;100455.97;1698652;82;21053;-61
2022/07/30 05:58:57;;;;;;;4.83;1.52;;;;;;;35.46;31.71;100453.31;1727343;82;20986;-58
2022/07/30 06:01:27;;;;;;;3.12;1.60;;;;;;;35.94;31.04;100451.47;1724591;82;21317;-59
2022/07/30 06:03:55;;;;;;;3.35;1.80;;;;;;;36.41;30.40;100453.41;1698133;82;20971;-58
2022/07/30 06:06:26;;;;;;;4.25;1.40;;;;;;;36.98;29.60;100450.63;1719411;81;21505;-61
2022/07/30 06:08:55;;;;;;;4.15;1.80;;;;;;;37.30;28.62;100457.26;1719037;83;21367;-57
2022/07/30 06:11:23;;;;;;;4.03;1.77;;;;;;;37.22;28.64;100446.04;1719162;83;21002;-58
2022/07/30 06:13:50;;;;;;;3.15;1.67;;;;;;;37.17;29.24;100452.55;1718889;83;21291;-58
2022/07/30 06:16:18;;;;;;;3.98;1.57;;;;;;;37.25;28.38;100452.12;1718511;83;20920;-58
2022/07/30 06:18:47;;;;;;;2.83;1.45;;;;;;;37.07;28.30;100450.41;1718443;83;21065;-59
2022/07/30 06:21:16;;;;;;;4.30;1.90;;;;;;;36.76;28.16;100449.94;1717334;83;21813;-57
2022/07/30 06:24:06;;;;;;;3.52;1.90;;;;;;;36.53;28.92;100449.25;1718060;83;21117;-58
2022/07/30 06:26:44;;;;;;;3.40;1.70;;;;;;;36.42;29.72;100445.47;1717970;83;21136;-58
2022/07/30 06:29:13;;;;;;;4.15;1.98;;;;;;;36.75;29.24;100441.58;1718669;83;21063;-57
2022/07/30 06:31:40;;;;;;;5.75;2.05;;;;;;;36.98;28.41;100441.11;1718863;83;21051;-58
2022/07/30 06:34:09;;;;;;;5.20;1.83;;;;;;;36.77;29.12;100437.34;1719131;83;21093;-57
2022/07/30 06:36:39;;;;;;;5.20;2.05;;;;;;;36.62;28.53;100435.46;1718243;83;21551;-57
2022/07/30 06:39:10;;;;;;;10.93;2.40;;;;;;;36.54;28.67;100439.17;1718580;83;21927;-57
2022/07/30 06:41:42;;;;;;;3.12;1.70;;;;;;;36.51;29.02;100433.86;1713911;83;21058;-57
2022/07/30 06:44:11;;;;;;;7.50;1.55;;;;;;;36.66;28.64;100428.17;1718666;83;21113;-62
2022/07/30 06:46:55;;;;;;;2.87;1.35;;;;;;;36.93;28.04;100426.41;1683477;83;21074;-57
2022/07/30 06:49:24;;;;;;;2.65;1.30;;;;;;;36.90;28.03;100431.22;1718381;83;20936;-64
2022/07/30 06:51:51;;;;;;;2.77;1.20;;;;;;;36.57;25.44;100422.74;1718632;83;21660;-57
2022/07/30 06:54:18;;;;;;;3.98;1.40;;;;;;;35.74;26.66;100429.46;1718200;83;21034;-58
2022/07/30 06:57:05;;;;;;;4.35;1.20;;;;;;;35.09;27.26;100429.64;1632056;87;21686;-60
2022/07/30 06:59:33;;;;;;;3.65;1.20;;;;;;;34.56;27.91;100428.84;1690492;83;21537;-58
2022/07/30 07:02:12;;;;;;;2.08;1.00;;;;;;;34.18;27.78;100432.67;1718683;83;21066;-58
2022/07/30 07:04:51;;;;;;;2.25;1.20;;;;;;;33.77;28.74;100430.33;1717129;83;21249;-66
2022/07/30 07:07:20;;;;;;;4.15;1.32;;;;;;;33.51;29.71;100429.25;1718640;83;20982;-63
2022/07/30 07:09:47;;;;;;;2.83;1.17;;;;;;;33.44;29.61;100431.67;1718612;83;21058;-57
2022/07/30 07:12:16;;;;;;;3.83;1.20;;;;;;;33.37;29.79;100432.20;1714680;83;20978;-57
2022/07/30 07:14:45;;;;;;;1.87;1.30;;;;;;;33.28;30.01;100415.86;1718583;83;20888;-58
2022/07/30 07:17:13;;;;;;;3.37;1.15;;;;;;;33.23;30.57;100407.41;1719093;83;22221;-57
2022/07/30 07:19:54;;;;;;;1.90;1.20;;;;;;;33.14;30.42;100414.21;1715667;82;21446;-58
2022/07/30 07:22:21;;;;;;;2.40;1.27;;;;;;;33.16;30.88;100409.28;1718767;83;21043;-64
2022/07/30 07:24:49;;;;;;;4.80;1.55;;;;;;;33.46;30.78;100409.73;1718656;83;21449;-57
2022/07/30 07:27:20;;;;;;;4.62;1.65;;;;;;;33.79;30.21;100398.89;1718365;83;20983;-65
2022/07/30 07:29:50;;;;;;;3.12;1.20;;;;;;;33.90;29.86;100410.84;1695569;83;21627;-57
2022/07/30 07:32:18;;;;;;;2.10;1.00;;;;;;;33.88;29.33;100406.36;1718741;83;21517;-57
2022/07/30 07:34:45;;;;;;;2.67;1.42;;;;;;;33.93;29.33;100410.18;1718307;83;21027;-61
2022/07/30 07:37:15;;;;;;;3.10;1.50;;;;;;;34.13;29.10;100401.22;1719347;83;20998;-58
2022/07/30 07:39:42;;;;;;;4.15;1.40;;;;;;;33.87;29.05;100387.20;1718649;83;21019;-57
2022/07/30 07:42:10;;;;;;;4.47;1.30;;;;;;;33.82;29.69;100395.52;1718716;83;22574;-57
2022/07/30 07:44:38;;;;;;;4.55;1.62;;;;;;;33.81;29.24;100393.95;1718256;83;21077;-58
2022/07/30 07:47:06;;;;;;;3.05;1.60;;;;;;;33.79;29.67;100389.42;1718935;83;21320;-59
2022/07/30 07:49:37;;;;;;;4.25;1.40;;;;;;;33.93;29.61;100393.17;1718379;83;21042;-57
2022/07/30 07:52:05;;;;;;;2.85;1.20;;;;;;;34.10;28.92;100392.42;1719104;83;21090;-59
2022/07/30 07:54:33;;;;;;;2.47;1.22;;;;;;;34.19;28.53;100386.89;1718185;83;21145;-58
2022/07/30 07:57:02;;;;;;;2.98;1.60;;;;;;;34.32;28.44;100383.06;1718534;83;21033;-57
2022/07/30 07:59:34;;;;;;;2.98;1.20;;;;;;;34.51;28.47;100382.50;1717598;83;21055;-57
2022/07/30 08:02:02;;;;;;;2.40;1.25;;;;;;;34.78;28.53;100376.90;1718719;83;21268;-57
2022/07/30 08:04:45;;;;;;;3.02;1.65;;;;;;;35.23;29.19;100375.03;1717657;83;21062;-57
2022/07/30 08:07:12;;;;;;;2.75;1.27;;;;;;;35.79;26.88;100379.80;1720887;82;22480;-59
2022/07/30 08:09:59;;;;;;;2.60;1.20;;;;;;;35.88;26.15;100377.47;1723663;82;21836;-59
2022/07/30 08:12:30;;;;;;;2.42;1.40;;;;;;;35.55;26.33;100368.56;1659877;83;21539;-58
2022/07/30 08:15:17;;;;;;;4.47;1.22;;;;;;;35.09;26.24;100388.44;1724635;82;21423;-58
2022/07/30 08:17:53;;;;;;;3.00;1.15;;;;;;;34.92;27.44;100381.91;1719594;83;20994;-58
2022/07/30 08:20:23;;;;;;;2.05;1.10;;;;;;;35.07;26.96;100383.91;1704832;84;21152;-58
2022/07/30 08:22:50;;;;;;;2.70;1.40;;;;;;;35.06;26.40;100386.41;1689386;84;21015;-58
2022/07/30 08:25:18;;;;;;;3.25;1.40;;;;;;;34.69;26.78;100377.59;1689743;84;21079;-58
2022/07/30 08:27:46;;;;;;;2.00;1.15;;;;;;;34.23;27.01;100377.53;1689646;84;20965;-65
2022/07/30 08:30:14;;;;;;;2.50;1.20;;;;;;;34.03;27.75;100380.02;1689521;84;21518;-59
2022/07/30 08:32:42;;;;;;;3.40;1.50;;;;;;;33.92;28.06;100378.86;1689320;84;21175;-59
2022/07/30 08:35:09;;;;;;;3.75;1.52;;;;;;;33.94;28.38;100372.53;1689693;84;21438;-58
2022/07/30 08:37:39;;;;;;;2.40;1.30;;;;;;;34.26;28.03;100376.86;1689538;84;21122;-58
2022/07/30 08:40:10;;;;;;;2.25;1.50;;;;;;;34.46;27.20;100379.20;1689423;84;21008;-59
2022/07/30 08:42:41;;;;;;;2.20;1.40;;;;;;;34.42;26.59;100370.18;1690341;83;21542;-58
2022/07/30 08:45:11;;;;;;;2.85;1.55;;;;;;;34.34;27.40;100371.89;1690295;84;21427;-58
2022/07/30 08:47:39;;;;;;;2.83;1.22;;;;;;;34.81;27.43;100372.70;1662328;84;20938;-62
2022/07/30 08:50:13;;;;;;;2.72;1.47;;;;;;;35.20;27.01;100370.33;1664085;84;21866;-59
2022/07/30 08:52:44;;;;;;;2.40;1.55;;;;;;;35.40;26.83;100375.30;1691482;83;21593;-57
2022/07/30 08:55:13;;;;;;;5.60;1.32;;;;;;;35.37;26.22;100375.98;1689920;84;21001;-66
2022/07/30 08:57:42;;;;;;;2.20;1.30;;;;;;;35.21;26.39;100369.19;1689590;84;21056;-58
2022/07/30 09:00:13;;;;;;;3.90;1.50;;;;;;;35.10;26.41;100368.33;1689894;84;21029;-58
2022/07/30 09:02:40;;;;;;;3.47;1.32;;;;;;;34.97;26.83;100354.59;1689584;84;21595;-57
2022/07/30 09:05:09;;;;;;;2.65;1.50;;;;;;;34.85;26.67;100355.44;1689919;84;21048;-65
2022/07/30 09:07:38;;;;;;;3.17;1.65;;;;;;;34.54;27.17;100361.49;1694531;84;21032;-58
2022/07/30 09:10:07;;;;;;;3.37;1.80;;;;;;;34.54;27.56;100346.60;1719100;82;21269;-66
2022/07/30 09:12:43;;;;;;;3.92;1.70;;;;;;;34.58;27.01;100350.20;1699516;84;20988;-57
2022/07/30 09:15:16;;;;;;;4.62;1.75;;;;;;;34.74;26.06;100344.06;1718562;82;21115;-65
2022/07/30 09:17:55;;;;;;;2.08;1.35;;;;;;;34.57;26.53;100342.43;1699631;84;21449;-58
2022/07/30 09:20:35;;;;;;;3.95;1.70;;;;;;;34.13;26.81;100348.47;1699391;84;21087;-58
2022/07/30 09:23:05;;;;;;;2.62;1.75;;;;;;;33.63;27.20;100344.12;1699123;84;21154;-59
2022/07/30 09:25:45;;;;;;;4.87;1.57;;;;;;;33.38;27.49;100342.50;1698538;84;21538;-58
2022/07/30 09:28:32;;;;;;;4.20;2.15;;;;;;;33.21;27.39;100345.36;1699325;84;21059;-59
2022/07/30 09:31:12;;;;;;;2.98;1.70;;;;;;;33.25;27.89;100341.66;1680338;84;22069;-59
2022/07/30 09:33:58;;;;;;;2.00;1.42;;;;;;;33.42;28.01;100343.41;1699838;84;20921;-58
2022/07/30 09:36:46;;;;;;;4.50;1.90;;;;;;;33.36;27.96;100342.03;1698562;84;21024;-58
2022/07/30 09:39:31;;;;;;;3.40;1.70;;;;;;;33.47;28.23;100345.91;1699585;84;21016;-58
2022/07/30 09:42:24;;;;;;;3.58;1.70;;;;;;;33.49;27.33;100345.03;1698955;84;21055;-60
2022/07/30 09:45:09;;;;;;;2.80;1.67;;;;;;;33.41;27.16;100337.22;1699417;84;21060;-58
2022/07/30 09:47:38;;;;;;;2.55;1.70;;;;;;;33.29;27.25;100333.11;1698401;84;21158;-58
2022/07/30 09:50:12;;;;;;;1.90;1.30;;;;;;;33.08;28.52;100334.53;1700274;84;21380;-59
2022/07/30 09:52:42;;;;;;;3.47;1.70;;;;;;;33.20;29.04;100336.47;1699909;84;21070;-59
2022/07/30 09:55:09;;;;;;;3.90;1.60;;;;;;;33.46;28.56;100330.83;1719417;82;21090;-65
2022/07/30 09:57:56;;;;;;;3.00;1.57;;;;;;;33.54;28.20;100338.05;1699543;84;21099;-59
2022/07/30 10:00:26;;;;;;;2.87;2.00;;;;;;;33.77;28.07;100337.62;1700063;83;21139;-58
2022/07/30 10:02:56;;;;;;;2.70;1.62;;;;;;;34.14;27.52;100328.40;1695649;84;21047;-66
2022/07/30 10:05:38;;;;;;;5.30;2.27;;;;;;;34.58;27.03;100325.83;1687818;84;20988;-58
2022/07/30 10:08:08;;;;;;;2.85;1.60;;;;;;;35.05;26.59;100327.16;1684980;84;21107;-59
2022/07/30 10:10:38;;;;;;;2.90;1.30;;;;;;;35.20;26.04;100327.77;1663338;84;21550;-59
2022/07/30 10:13:07;;;;;;;1.50;1.15;;;;;;;35.18;25.33;100326.52;1689488;84;21024;-58
2022/07/30 10:15:35;;;;;;;3.50;1.77;;;;;;;35.15;25.47;100319.86;1690204;84;21171;-58
2022/07/30 10:18:05;;;;;;;3.52;1.72;;;;;;;35.35;26.12;100312.66;1709508;83;21139;-58
2022/07/30 10:20:48;;;;;;;2.85;1.57;;;;;;;35.42;26.11;100327.74;1689042;84;21494;-58
2022/07/30 10:23:31;;;;;;;3.92;2.02;;;;;;;35.27;25.78;100325.78;1692418;83;20941;-61
2022/07/30 10:26:18;;;;;;;2.33;1.75;;;;;;;34.98;25.85;100331.79;1689026;84;20909;-67
2022/07/30 10:28:48;;;;;;;5.67;1.70;;;;;;;34.65;26.31;100331.23;1685236;84;21580;-57
2022/07/30 10:31:15;;;;;;;3.35;1.40;;;;;;;34.49;27.12;100327.09;1689325;84;21025;-58
2022/07/30 10:33:42;;;;;;;2.10;1.42;;;;;;;34.42;27.15;100331.72;1689616;84;21394;-57
2022/07/30 10:36:10;;;;;;;2.85;1.22;;;;;;;34.20;27.09;100333.56;1689497;84;21057;-65
2022/07/30 10:38:38;;;;;;;2.50;1.50;;;;;;;33.94;26.75;100330.62;1689284;84;22116;-56
2022/07/30 10:41:32;;;;;;;5.97;3.67;;;;;;;33.62;27.64;100326.91;1690119;84;21064;-57
2022/07/30 10:44:13;;;;;;;3.20;2.30;;;;;;;33.47;28.08;100321.59;1689030;84;21115;-58
2022/07/30 10:47:09;;;;;;;3.85;2.20;;;;;;;33.30;27.87;100327.14;1690408;84;20964;-57
2022/07/30 10:49:36;;;;;;;6.85;3.20;;;;;;;33.21;28.18;100322.41;1690084;83;21507;-57
2022/07/30 10:52:03;;;;;;;4.62;2.83;;;;;;;33.18;28.29;100326.55;1690256;84;21376;-57
2022/07/30 10:54:40;;;;;;;5.70;3.65;;;;;;;33.30;28.39;100322.55;1690110;84;21139;-57
2022/07/30 10:57:17;;;;;;;4.15;2.80;;;;;;;33.66;28.26;100316.99;1689968;84;21122;-65
2022/07/30 10:59:59;;;;;;;7.60;2.45;;;;;;;34.10;28.09;100316.68;1690453;84;21500;-57
2022/07/30 11:02:30;;;;;;;3.58;2.33;;;;;;;34.72;27.42;100315.98;1690106;84;21057;-57
2022/07/30 11:05:20;;;;;;;3.27;1.87;;;;;;;35.14;26.99;100314.23;1689535;84;27341;-64
2022/07/30 11:07:47;;;;;;;3.80;2.45;;;;;;;35.31;26.28;100321.27;1693199;82;22251;-58
2022/07/30 11:10:40;;;;;;;3.77;2.72;;;;;;;35.13;26.43;100318.66;1698928;84;21071;-59
2022/07/30 11:13:08;;;;;;;4.28;2.85;;;;;;;34.90;26.24;100313.77;1692089;84;21465;-58
2022/07/30 11:15:56;;;;;;;3.33;1.90;;;;;;;34.82;26.41;100311.44;1699324;84;21539;-57
2022/07/30 11:18:27;;;;;;;3.75;2.15;;;;;;;35.02;26.38;100319.16;1698396;84;21425;-58
2022/07/30 11:21:17;;;;;;;4.85;1.90;;;;;;;35.02;25.56;100308.31;1699216;84;21222;-59
2022/07/30 11:23:46;;;;;;;4.72;2.70;;;;;;;34.99;25.76;100307.66;1699023;84;21620;-58
2022/07/30 11:26:40;;;;;;;4.60;3.12;;;;;;;34.99;25.94;100308.19;1699025;84;21526;-57
2022/07/30 11:29:32;;;;;;;6.33;3.30;;;;;;;34.86;26.20;100304.77;1695846;84;21657;-58
2022/07/30 11:32:29;;;;;;;4.90;3.40;;;;;;;34.61;26.30;100302.14;1699636;84;21115;-58
2022/07/30 11:35:21;;;;;;;4.00;3.02;;;;;;;34.28;26.54;100293.41;1698905;84;20995;-64
2022/07/30 11:38:18;;;;;;;4.50;3.30;;;;;;;34.02;27.36;100304.07;1699192;84;21099;-58
2022/07/30 11:40:50;;;;;;;4.83;3.80;;;;;;;34.08;27.28;100294.58;1699477;84;21627;-57
2022/07/30 11:43:28;;;;;;;5.45;3.70;;;;;;;34.28;27.13;100296.12;1698937;84;21103;-66
2022/07/30 11:46:19;;;;;;;5.37;3.30;;;;;;;34.09;26.74;100303.48;1699426;84;21107;-66